createdAt,value
2022-11-14T00:01:31.370Z,27.95
2022-11-14T00:04:01.143Z,25.80
2022-11-14T00:06:29.570Z,23.13
2022-11-14T00:08:57.898Z,25.77
2022-11-14T00:11:26.144Z,25.45
2022-11-14T00:13:54.566Z,26.48
2022-11-14T00:16:22.941Z,24.58
2022-11-14T00:18:51.420Z,24.50
2022-11-14T00:21:21.187Z,23.90
2022-11-14T00:23:49.405Z,26.35
2022-11-14T00:26:17.693Z,23.63
2022-11-14T00:28:46.008Z,25.50
2022-11-14T00:31:14.136Z,26.17
2022-11-14T00:33:42.795Z,27.65
2022-11-14T00:36:11.194Z,26.52
2022-11-14T00:38:41.247Z,25.05
2022-11-14T00:41:09.519Z,24.27
2022-11-14T00:43:37.736Z,25.85
2022-11-14T00:46:05.911Z,25.42
2022-11-14T00:48:34.071Z,27.17
2022-11-14T00:51:02.278Z,25.52
2022-11-14T00:53:30.588Z,24.23
2022-11-14T00:56:00.574Z,27.15
2022-11-14T00:58:29.117Z,26.70
2022-11-14T01:00:57.772Z,26.67
2022-11-14T01:03:26.002Z,26.90
2022-11-14T01:05:54.400Z,26.35
2022-11-14T01:08:22.695Z,26.08
2022-11-14T01:10:52.279Z,28.23
2022-11-14T01:13:22.039Z,29.25
2022-11-14T01:15:52.186Z,25.90
2022-11-14T01:18:22.809Z,27.77
2022-11-14T01:20:51.211Z,24.50
2022-11-14T01:23:19.676Z,26.17
2022-11-14T01:25:47.987Z,26.30
2022-11-14T01:28:17.730Z,27.23
2022-11-14T01:30:47.661Z,27.10
2022-11-14T01:33:15.815Z,26.95
2022-11-14T01:35:44.163Z,26.17
2022-11-14T01:38:14.562Z,25.05
2022-11-14T01:40:44.038Z,27.35
2022-11-14T01:43:30.315Z,25.95
2022-11-14T01:46:02.381Z,28.85
2022-11-14T01:48:35.490Z,27.33
2022-11-14T01:51:06.968Z,26.17
2022-11-14T01:53:35.410Z,27.70
2022-11-14T01:56:07.391Z,28.02
2022-11-14T01:58:38.292Z,27.38
2022-11-14T02:01:08.309Z,26.90
2022-11-14T02:03:40.634Z,26.73
2022-11-14T02:06:11.453Z,27.35
2022-11-14T02:08:40.423Z,26.27
2022-11-14T02:11:12.494Z,26.52
2022-11-14T02:13:41.079Z,25.25
2022-11-14T02:16:10.938Z,28.27
2022-11-14T02:18:39.264Z,26.15
2022-11-14T02:21:09.075Z,27.98
2022-11-14T02:23:37.307Z,25.10
2022-11-14T02:26:05.787Z,27.00
2022-11-14T02:28:33.958Z,27.88
2022-11-14T02:31:02.136Z,27.00
2022-11-14T02:33:30.361Z,28.25
2022-11-14T02:35:58.576Z,26.42
2022-11-14T02:38:28.625Z,26.10
2022-11-14T02:40:57.076Z,26.80
2022-11-14T02:43:25.332Z,26.60
2022-11-14T02:45:53.853Z,26.90
2022-11-14T02:48:22.085Z,27.60
2022-11-14T02:50:50.794Z,27.55
2022-11-14T02:53:19.177Z,26.58
2022-11-14T02:55:48.959Z,26.58
2022-11-14T02:58:17.071Z,26.48
2022-11-14T03:01:06.253Z,28.27
2022-11-14T03:03:33.805Z,26.00
2022-11-14T03:06:02.342Z,27.40
2022-11-14T03:08:30.912Z,27.50
2022-11-14T03:11:07.521Z,25.02
2022-11-14T03:13:36.302Z,26.17
2022-11-14T03:16:08.697Z,26.38
2022-11-14T03:18:37.293Z,26.13
2022-11-14T03:21:09.183Z,26.75
2022-11-14T03:23:37.820Z,25.50
2022-11-14T03:26:09.684Z,24.95
2022-11-14T03:28:38.907Z,26.77
2022-11-14T03:31:07.893Z,26.23
2022-11-14T03:33:37.223Z,25.15
2022-11-14T03:36:06.913Z,24.08
2022-11-14T03:38:35.785Z,28.90
2022-11-14T03:41:04.095Z,26.30
2022-11-14T03:43:34.968Z,25.25
2022-11-14T03:46:04.684Z,24.33
2022-11-14T03:48:33.217Z,24.65
2022-11-14T03:51:01.801Z,26.17
2022-11-14T03:53:30.054Z,23.58
2022-11-14T03:55:58.297Z,24.77
2022-11-14T03:58:26.859Z,25.30
2022-11-14T04:00:57.143Z,24.52
2022-11-14T04:03:26.179Z,24.38
2022-11-14T04:05:54.456Z,24.98
2022-11-14T04:08:22.724Z,24.80
2022-11-14T04:10:51.165Z,25.33
2022-11-14T04:13:19.396Z,23.35
2022-11-14T04:15:47.610Z,24.98
2022-11-14T04:18:17.396Z,24.35
2022-11-14T04:20:45.620Z,25.98
2022-11-14T04:23:13.908Z,25.02
2022-11-14T04:25:42.190Z,25.95
2022-11-14T04:28:10.474Z,25.02
2022-11-14T04:30:38.829Z,23.35
2022-11-14T04:33:07.523Z,24.38
2022-11-14T04:35:37.149Z,23.60
2022-11-14T04:38:05.409Z,24.65
2022-11-14T04:40:33.687Z,22.52
2022-11-14T04:43:01.911Z,24.15
2022-11-14T04:45:30.255Z,22.90
2022-11-14T04:47:58.536Z,25.92
2022-11-14T04:50:26.728Z,25.92
2022-11-14T04:52:56.422Z,23.75
2022-11-14T04:55:24.709Z,24.08
2022-11-14T04:57:56.151Z,25.73
2022-11-14T05:00:24.595Z,23.38
2022-11-14T05:02:52.916Z,24.80
2022-11-14T05:05:21.291Z,26.27
2022-11-14T05:07:49.539Z,26.00
2022-11-14T05:10:19.478Z,25.60
2022-11-14T05:12:47.884Z,25.17
2022-11-14T05:15:16.263Z,25.40
2022-11-14T05:17:44.451Z,26.88
2022-11-14T05:20:13.196Z,24.65
2022-11-14T05:22:41.512Z,26.50
2022-11-14T05:25:10.693Z,26.95
2022-11-14T05:27:40.408Z,26.23
2022-11-14T05:30:09.984Z,26.67
2022-11-14T05:32:38.209Z,25.80
2022-11-14T05:35:07.452Z,26.95
2022-11-14T05:37:35.825Z,26.17
2022-11-14T05:40:04.948Z,27.90
2022-11-14T05:42:33.267Z,29.33
2022-11-14T05:45:02.925Z,28.33
2022-11-14T05:47:31.329Z,26.95
2022-11-14T05:49:59.630Z,29.15
2022-11-14T05:52:27.934Z,26.83
2022-11-14T05:54:56.045Z,28.98
2022-11-14T05:57:24.248Z,28.73
2022-11-14T05:59:52.496Z,29.67
2022-11-14T06:02:22.209Z,27.23
2022-11-14T06:04:50.460Z,28.27
2022-11-14T06:07:20.547Z,29.40
2022-11-14T06:09:48.819Z,29.17
2022-11-14T06:12:17.014Z,28.02
2022-11-14T06:14:45.380Z,29.75
2022-11-14T06:17:13.656Z,27.83
2022-11-14T06:19:43.464Z,29.42
2022-11-14T06:22:11.741Z,28.42
2022-11-14T06:24:40.019Z,31.75
2022-11-14T06:27:08.413Z,30.92
2022-11-14T06:29:36.604Z,28.75
2022-11-14T06:32:05.029Z,29.15
2022-11-14T06:34:33.324Z,29.48
2022-11-14T06:37:03.237Z,29.27
2022-11-14T06:39:31.507Z,28.15
2022-11-14T06:42:00.016Z,28.27
2022-11-14T06:44:30.954Z,27.65
2022-11-14T06:46:59.453Z,29.15
2022-11-14T06:49:27.998Z,30.33
2022-11-14T06:51:56.486Z,28.98
2022-11-14T06:54:26.186Z,28.33
2022-11-14T06:56:54.247Z,28.77
2022-11-14T06:59:22.521Z,29.98
2022-11-14T07:01:50.659Z,29.63
2022-11-14T07:04:19.213Z,30.42
2022-11-14T07:06:47.579Z,32.70
2022-11-14T07:09:16.052Z,28.42
2022-11-14T07:11:47.754Z,29.83
2022-11-14T07:14:16.122Z,29.65
2022-11-14T07:16:44.436Z,27.73
2022-11-14T07:19:12.783Z,30.73
2022-11-14T07:21:45.601Z,29.08
2022-11-14T07:24:13.935Z,29.33
2022-11-14T07:26:47.843Z,28.80
2022-11-14T07:29:17.558Z,29.40
2022-11-14T07:31:45.960Z,29.80
2022-11-14T07:34:14.920Z,27.80
2022-11-14T07:36:43.118Z,26.73
2022-11-14T07:39:11.524Z,28.38
2022-11-14T07:41:40.922Z,29.67
2022-11-14T07:44:09.486Z,28.30
2022-11-14T07:46:39.214Z,29.90
2022-11-14T07:49:07.488Z,29.45
2022-11-14T07:51:39.252Z,28.08
2022-11-14T07:54:07.644Z,27.48
2022-11-14T07:56:36.023Z,31.02
2022-11-14T07:59:04.476Z,30.08
2022-11-14T08:01:37.200Z,30.55
2022-11-14T08:04:07.337Z,29.95
2022-11-14T08:06:35.666Z,29.23
2022-11-14T08:09:04.194Z,30.67
2022-11-14T08:11:50.887Z,28.90
2022-11-14T08:14:19.191Z,27.40
2022-11-14T08:16:47.375Z,27.02
2022-11-14T08:19:17.845Z,29.55
2022-11-14T08:21:46.538Z,26.83
2022-11-14T08:24:14.736Z,26.20
2022-11-14T08:26:43.037Z,26.83
2022-11-14T08:29:11.258Z,27.83
2022-11-14T08:31:40.961Z,25.77
2022-11-14T08:34:10.056Z,26.35
2022-11-14T08:36:40.166Z,27.83
2022-11-14T08:39:08.504Z,27.98
2022-11-14T08:41:36.856Z,25.30
2022-11-14T08:44:05.260Z,27.20
2022-11-14T08:46:33.509Z,25.05
2022-11-14T08:49:01.793Z,27.70
2022-11-14T08:51:31.193Z,27.30
2022-11-14T08:54:01.101Z,24.88
2022-11-14T08:56:29.379Z,27.00
2022-11-14T08:58:57.767Z,25.48
2022-11-14T09:01:26.060Z,24.50
2022-11-14T09:03:59.660Z,24.60
2022-11-14T09:06:28.438Z,24.98
2022-11-14T09:08:58.780Z,25.45
2022-11-14T09:11:28.794Z,24.48
2022-11-14T09:13:59.177Z,23.77
2022-11-14T09:16:27.569Z,22.10
2022-11-14T09:18:55.880Z,21.85
2022-11-14T09:21:24.140Z,22.23
2022-11-14T09:23:56.161Z,21.55
2022-11-14T09:26:28.679Z,21.60
2022-11-14T09:28:57.144Z,19.95
2022-11-14T09:31:25.459Z,20.75
2022-11-14T09:33:53.850Z,21.52
2022-11-14T09:36:23.260Z,18.98
2022-11-14T09:38:57.520Z,19.17
2022-11-14T09:41:38.301Z,17.13
2022-11-14T09:44:30.332Z,18.75
2022-11-14T09:47:02.942Z,17.88
2022-11-14T09:49:36.771Z,17.05
2022-11-14T09:52:14.728Z,17.52
2022-11-14T09:54:49.086Z,15.98
2022-11-14T09:57:22.180Z,16.15
2022-11-14T09:59:51.527Z,16.30
2022-11-14T10:02:34.468Z,15.32
2022-11-14T10:05:21.718Z,14.82
2022-11-14T10:08:26.298Z,14.68
2022-11-14T10:10:57.707Z,14.93
2022-11-14T10:13:40.239Z,13.65
2022-11-14T10:16:15.692Z,14.40
2022-11-14T10:19:04.623Z,14.25
2022-11-14T10:21:45.899Z,13.50
2022-11-14T10:24:37.158Z,13.77
2022-11-14T10:27:08.085Z,12.70
2022-11-14T10:29:58.160Z,13.93
2022-11-14T10:32:41.145Z,11.90
2022-11-14T10:35:15.889Z,11.48
2022-11-14T10:37:56.928Z,12.82
2022-11-14T10:40:27.407Z,12.35
2022-11-14T10:42:59.546Z,12.27
2022-11-14T10:45:33.767Z,11.75
2022-11-14T10:48:04.907Z,11.82
2022-11-14T10:50:46.211Z,11.05
2022-11-14T10:53:25.282Z,12.32
2022-11-14T10:56:04.200Z,11.98
2022-11-14T10:58:46.760Z,11.80
2022-11-14T11:01:37.187Z,12.68
2022-11-14T11:04:30.452Z,12.90
2022-11-14T11:07:34.847Z,12.15
2022-11-14T11:10:21.298Z,12.35
2022-11-14T11:12:51.747Z,12.35
2022-11-14T11:15:22.582Z,11.90
2022-11-14T11:18:00.896Z,10.75
2022-11-14T11:20:34.838Z,12.55
2022-11-14T11:23:08.864Z,13.35
2022-11-14T11:25:51.858Z,11.70
2022-11-14T11:28:25.859Z,11.82
2022-11-14T11:30:58.523Z,12.75
2022-11-14T11:33:30.969Z,11.82
2022-11-14T11:36:04.091Z,12.52
2022-11-14T11:38:34.502Z,11.57
2022-11-14T11:42:06.173Z,11.23
2022-11-14T11:44:21.090Z,11.48
2022-11-14T11:46:57.072Z,11.57
2022-11-14T11:49:38.267Z,12.00
2022-11-14T11:52:13.071Z,11.57
2022-11-14T11:54:52.896Z,11.57
2022-11-14T11:57:28.480Z,12.10
2022-11-14T12:00:09.731Z,11.27
2022-11-14T12:02:49.480Z,11.25
2022-11-14T12:05:32.978Z,11.63
2022-11-14T12:08:06.733Z,11.40
2022-11-14T12:10:39.338Z,11.40
2022-11-14T12:13:36.400Z,10.48
2022-11-14T12:16:51.806Z,10.75
2022-11-14T12:19:43.462Z,11.20
2022-11-14T12:22:39.630Z,10.40
2022-11-14T12:25:53.152Z,9.70
2022-11-14T12:28:42.962Z,11.80
2022-11-14T12:31:16.952Z,11.50
2022-11-14T12:33:48.134Z,12.88
2022-11-14T12:36:16.976Z,12.80
2022-11-14T12:38:50.314Z,13.02
2022-11-14T12:41:25.755Z,13.52
2022-11-14T12:43:54.175Z,13.45
2022-11-14T12:46:22.496Z,13.30
2022-11-14T12:49:35.218Z,11.63
2022-11-14T12:52:03.802Z,13.07
2022-11-14T12:54:47.435Z,12.98
2022-11-14T12:57:38.118Z,15.50
2022-11-14T13:00:11.484Z,13.95
2022-11-14T13:03:03.602Z,14.57
2022-11-14T13:05:47.661Z,14.07
2022-11-14T13:08:50.629Z,14.85
2022-11-14T13:12:00.191Z,15.15
2022-11-14T13:14:46.516Z,14.23
2022-11-14T13:17:50.144Z,14.32
2022-11-14T13:20:48.868Z,14.90
2022-11-14T13:23:55.763Z,14.52
2022-11-14T13:26:43.727Z,14.65
2022-11-14T13:29:50.739Z,15.55
2022-11-14T13:33:04.749Z,15.05
2022-11-14T13:35:48.514Z,15.60
2022-11-14T13:38:37.130Z,15.70
2022-11-14T13:41:24.623Z,17.88
2022-11-14T13:44:19.134Z,16.25
2022-11-14T13:47:03.127Z,14.25
2022-11-14T13:49:53.040Z,17.55
2022-11-14T13:52:21.771Z,17.58
2022-11-14T13:54:50.987Z,16.17
2022-11-14T13:57:29.159Z,16.35
2022-11-14T14:00:07.112Z,18.30
2022-11-14T14:03:13.296Z,16.63
2022-11-14T14:06:04.158Z,16.80
2022-11-14T14:08:54.500Z,15.63
2022-11-14T14:11:44.048Z,18.55
2022-11-14T14:14:33.307Z,17.00
2022-11-14T14:17:09.183Z,16.23
2022-11-14T14:19:49.005Z,16.05
2022-11-14T14:22:24.151Z,20.35
2022-11-14T14:25:03.467Z,18.67
2022-11-14T14:27:39.043Z,17.88
2022-11-14T14:30:17.711Z,17.60
2022-11-14T14:33:04.158Z,17.50
2022-11-14T14:35:39.095Z,18.02
2022-11-14T14:38:14.900Z,17.92
2022-11-14T14:40:44.042Z,16.40
2022-11-14T14:43:24.390Z,17.33
2022-11-14T14:45:55.208Z,18.88
2022-11-14T14:48:30.002Z,18.48
2022-11-14T14:51:00.240Z,19.52
2022-11-14T14:53:33.413Z,20.63
2022-11-14T14:56:03.901Z,22.05
2022-11-14T14:58:33.968Z,20.25
2022-11-14T15:01:09.550Z,20.63
2022-11-14T15:03:46.625Z,21.15
2022-11-14T15:06:32.855Z,22.92
2022-11-14T15:09:04.166Z,21.63
2022-11-14T15:11:33.059Z,21.35
2022-11-14T15:14:02.837Z,21.05
2022-11-14T15:16:31.654Z,22.20
2022-11-14T15:19:02.143Z,21.80
2022-11-14T15:21:32.013Z,23.00
2022-11-14T15:24:04.431Z,23.40
2022-11-14T15:26:32.932Z,22.00
2022-11-14T15:29:09.605Z,23.10
2022-11-14T15:31:38.219Z,25.08
2022-11-14T15:34:24.092Z,23.27
2022-11-14T15:37:23.849Z,25.17
2022-11-14T15:39:52.257Z,25.65
2022-11-14T15:42:27.736Z,25.35
2022-11-14T15:44:56.061Z,25.73
2022-11-14T15:47:26.469Z,26.45
2022-11-14T15:50:00.795Z,26.15
2022-11-14T15:52:34.614Z,26.48
2022-11-14T15:55:03.769Z,26.58
2022-11-14T15:57:33.537Z,28.15
2022-11-14T16:00:01.930Z,28.42
2022-11-14T16:02:34.731Z,26.98
2022-11-14T16:05:07.802Z,28.60
2022-11-14T16:07:36.242Z,26.77
2022-11-14T16:10:04.787Z,28.50
2022-11-14T16:12:32.948Z,28.15
2022-11-14T16:15:01.249Z,28.88
2022-11-14T16:17:29.422Z,27.50
2022-11-14T16:20:00.337Z,28.55
2022-11-14T16:22:30.231Z,30.05
2022-11-14T16:25:00.332Z,30.33
2022-11-14T16:27:28.710Z,29.58
2022-11-14T16:29:57.439Z,28.35
2022-11-14T16:32:26.747Z,30.48
2022-11-14T16:34:55.059Z,28.48
2022-11-14T16:37:25.277Z,28.40
2022-11-14T16:39:55.537Z,29.92
2022-11-14T16:42:24.042Z,30.52
2022-11-14T16:44:52.261Z,31.58
2022-11-14T16:47:20.789Z,31.90
2022-11-14T16:49:49.316Z,30.00
2022-11-14T16:52:17.548Z,30.45
2022-11-14T16:54:45.762Z,29.65
2022-11-14T16:57:15.482Z,31.02
2022-11-14T16:59:43.902Z,31.05
2022-11-14T17:02:16.080Z,29.90
2022-11-14T17:04:44.784Z,30.70
2022-11-14T17:07:16.657Z,31.95
2022-11-14T17:09:47.193Z,30.95
2022-11-14T17:12:22.961Z,31.70
2022-11-14T17:14:51.347Z,31.33
2022-11-14T17:17:19.653Z,32.42
2022-11-14T17:19:47.997Z,31.17
2022-11-14T17:22:17.764Z,31.15
2022-11-14T17:24:46.373Z,31.60
2022-11-14T17:27:14.677Z,30.73
2022-11-14T17:29:44.786Z,29.92
2022-11-14T17:32:13.080Z,31.35
2022-11-14T17:34:41.463Z,32.72
2022-11-14T17:37:09.859Z,31.73
2022-11-14T17:39:38.081Z,31.70
2022-11-14T17:42:07.433Z,30.27
2022-11-14T17:44:35.884Z,30.08
2022-11-14T17:47:05.690Z,30.08
2022-11-14T17:49:34.021Z,30.63
2022-11-14T17:52:02.272Z,31.92
2022-11-14T17:54:30.603Z,28.48
2022-11-14T17:56:59.882Z,28.88
2022-11-14T17:59:28.093Z,30.23
2022-11-14T18:01:59.870Z,32.88
2022-11-14T18:04:31.220Z,30.70
2022-11-14T18:06:59.467Z,30.40
2022-11-14T18:09:29.547Z,30.60
2022-11-14T18:12:00.008Z,29.27
2022-11-14T18:14:28.651Z,32.13
2022-11-14T18:17:12.363Z,31.80
2022-11-14T18:19:43.213Z,30.27
2022-11-14T18:22:11.744Z,31.60
2022-11-14T18:24:47.265Z,28.85
2022-11-14T18:27:15.689Z,30.60
2022-11-14T18:29:43.919Z,29.13
2022-11-14T18:32:12.256Z,33.20
2022-11-14T18:34:40.871Z,32.53
2022-11-14T18:37:10.571Z,28.95
2022-11-14T18:39:38.879Z,30.48
2022-11-14T18:42:07.181Z,29.55
2022-11-14T18:44:35.433Z,31.77
2022-11-14T18:47:03.684Z,30.40
2022-11-14T18:49:32.299Z,28.90
2022-11-14T18:52:05.451Z,31.30
2022-11-14T18:54:40.331Z,32.95
2022-11-14T18:57:09.107Z,29.70
2022-11-14T18:59:37.390Z,29.83
2022-11-14T19:02:10.024Z,28.83
2022-11-14T19:04:40.365Z,30.60
2022-11-14T19:07:11.211Z,29.08
2022-11-14T19:09:41.110Z,30.38
2022-11-14T19:12:21.816Z,30.73
2022-11-14T19:15:02.264Z,31.25
2022-11-14T19:17:30.952Z,28.38
2022-11-14T19:19:59.762Z,31.58
2022-11-14T19:22:28.418Z,30.80
2022-11-14T19:24:59.193Z,32.88
2022-11-14T19:27:28.480Z,31.02
2022-11-14T19:29:56.935Z,32.67
2022-11-14T19:32:25.285Z,32.90
2022-11-14T19:34:53.680Z,30.73
2022-11-14T19:37:22.877Z,30.45
2022-11-14T19:39:55.378Z,30.70
2022-11-14T19:42:25.231Z,31.08
2022-11-14T19:44:53.349Z,32.05
2022-11-14T19:47:21.581Z,32.28
2022-11-14T19:49:49.820Z,29.63
2022-11-14T19:52:18.386Z,33.00
2022-11-14T19:54:49.405Z,28.63
2022-11-14T19:57:17.778Z,31.25
2022-11-14T19:59:47.681Z,29.80
2022-11-14T20:02:16.278Z,31.63
2022-11-14T20:04:47.913Z,31.95
2022-11-14T20:07:16.478Z,32.55
2022-11-14T20:09:47.788Z,33.28
2022-11-14T20:12:16.160Z,35.17
2022-11-14T20:14:48.233Z,30.83
2022-11-14T20:17:16.488Z,29.42
2022-11-14T20:19:44.753Z,32.80
2022-11-14T20:22:13.090Z,32.55
2022-11-14T20:24:41.465Z,33.15
2022-11-14T20:27:09.884Z,35.05
2022-11-14T20:29:38.271Z,35.08
2022-11-14T20:32:11.675Z,36.25
2022-11-14T20:34:43.885Z,34.25
2022-11-14T20:37:12.365Z,33.40
2022-11-14T20:39:40.666Z,34.17
2022-11-14T20:42:08.955Z,34.60
2022-11-14T20:44:37.397Z,33.08
2022-11-14T20:47:11.013Z,33.55
2022-11-14T20:49:39.659Z,34.20
2022-11-14T20:52:07.998Z,33.92
2022-11-14T20:54:36.712Z,33.55
2022-11-14T20:57:04.988Z,34.15
2022-11-14T20:59:34.746Z,34.40
2022-11-14T21:02:03.104Z,31.63
2022-11-14T21:04:32.982Z,33.35
2022-11-14T21:07:01.259Z,31.30
2022-11-14T21:09:30.756Z,31.67
2022-11-14T21:11:59.180Z,31.15
2022-11-14T21:14:27.451Z,31.13
2022-11-14T21:16:55.721Z,31.83
2022-11-14T21:19:24.495Z,30.98
2022-11-14T21:21:54.198Z,32.60
2022-11-14T21:24:22.502Z,30.50
2022-11-14T21:26:50.860Z,33.97
2022-11-14T21:29:19.055Z,31.42
2022-11-14T21:31:47.840Z,32.20
2022-11-14T21:34:18.687Z,33.17
2022-11-14T21:36:48.299Z,33.63
2022-11-14T21:39:18.206Z,32.08
2022-11-14T21:41:49.292Z,32.30
2022-11-14T21:44:18.896Z,30.42
2022-11-14T21:46:48.780Z,31.85
2022-11-14T21:49:17.423Z,30.50
2022-11-14T21:51:45.742Z,29.90
2022-11-14T21:54:13.922Z,30.15
2022-11-14T21:56:43.619Z,31.25
2022-11-14T21:59:21.215Z,30.77
2022-11-14T22:02:08.425Z,30.80
2022-11-14T22:04:38.806Z,30.85
2022-11-14T22:07:09.140Z,32.90
2022-11-14T22:09:42.538Z,29.10
2022-11-14T22:12:14.875Z,33.53
2022-11-14T22:14:43.237Z,32.63
2022-11-14T22:17:11.563Z,31.52
2022-11-14T22:19:39.852Z,30.70
2022-11-14T22:22:08.009Z,32.80
2022-11-14T22:24:36.286Z,30.13
2022-11-14T22:27:04.672Z,32.97
2022-11-14T22:29:34.712Z,32.72
2022-11-14T22:32:03.105Z,35.70
2022-11-14T22:34:31.492Z,34.15
2022-11-14T22:36:59.840Z,32.95
2022-11-14T22:39:28.166Z,34.63
2022-11-14T22:41:56.350Z,33.72
2022-11-14T22:44:24.844Z,36.55
2022-11-14T22:46:54.863Z,33.95
2022-11-14T22:49:23.090Z,34.45
2022-11-14T22:51:51.389Z,32.42
2022-11-14T22:54:21.276Z,32.75
2022-11-14T22:56:49.589Z,33.10
2022-11-14T22:59:17.893Z,30.40
2022-11-14T23:01:46.126Z,32.55
2022-11-14T23:04:15.894Z,31.65
2022-11-14T23:06:44.407Z,32.08
2022-11-14T23:09:13.003Z,35.72
2022-11-14T23:11:41.275Z,33.38
2022-11-14T23:14:12.859Z,33.90
2022-11-14T23:16:41.123Z,35.15
2022-11-14T23:19:09.480Z,34.85
2022-11-14T23:21:39.708Z,34.38
2022-11-14T23:24:13.055Z,36.55
2022-11-14T23:26:41.522Z,35.17
2022-11-14T23:29:14.060Z,36.50
2022-11-14T23:31:42.690Z,37.03
2022-11-14T23:34:11.229Z,35.90
2022-11-14T23:36:41.292Z,38.85
2022-11-14T23:39:09.663Z,36.33
2022-11-14T23:41:38.087Z,34.55
2022-11-14T23:44:06.620Z,35.53
2022-11-14T23:46:34.927Z,34.47
2022-11-14T23:49:03.294Z,37.88
2022-11-14T23:51:31.697Z,37.63
2022-11-14T23:54:01.421Z,36.10
2022-11-14T23:56:29.768Z,37.15
2022-11-14T23:58:58.266Z,39.33
